WetterOnline ( https://www.wetteronline.at )

Wetter aktuell Würzburg

Aktuelles Wetter: Würzburg (272m)

6-stündlich | Neueste Meldungen
Ortszeit Temperatur Wetter
Di, 27.09. 8:00 8.7° C leichter Regen
Di, 27.09. 2:00 9.7° C leichter Regen
Mo, 26.09. 20:00 11.1° C bedeckt
Mo, 26.09. 14:00 12.3° C bedeckt
Mo, 26.09. 8:00 8.2° C bedeckt
Mo, 26.09. 2:00 10.7° C bewölkt
So, 25.09. 20:00 11.8° C bedeckt
So, 25.09. 14:00 14.2° C bedeckt
Ortszeit Temperatur Wetter
Di, 27.09. 12:00 9.9° C bewölkt
Di, 27.09. 11:30 9.8° C leichter Regen
Di, 27.09. 11:20 9.8° C leichter Regen
Di, 27.09. 11:10 9.6° C bedeckt
Di, 27.09. 11:00 9.5° C bedeckt
Di, 27.09. 10:50 9.5° C bedeckt
Di, 27.09. 10:30 9.6° C bedeckt
Di, 27.09. 10:00 9.4° C bedeckt
Di, 27.09. 9:30 9.2° C bedeckt
Di, 27.09. 9:00 8.7° C leichter Regen
Ortszeit Relative Feuchte Sichtweite
Di, 27.09. 8:00 90% 27 km
Di, 27.09. 2:00 92% 17 km
Mo, 26.09. 20:00 80% >70 km
Mo, 26.09. 14:00 77% 65 km
Mo, 26.09. 8:00 97% 7 km
Mo, 26.09. 2:00 89% 40 km
So, 25.09. 20:00 86% 45 km
So, 25.09. 14:00 78% 40 km
Ortszeit Relative Feuchte Sichtweite
Di, 27.09. 12:00 83% >70 km
Di, 27.09. 11:30 82% 30 km
Di, 27.09. 11:20 82% -
Di, 27.09. 11:10 83% -
Di, 27.09. 11:00 85% >70 km
Di, 27.09. 10:50 85% -
Di, 27.09. 10:30 84% 65 km
Di, 27.09. 10:00 85% >70 km
Di, 27.09. 9:30 88% >70 km
Di, 27.09. 9:00 89% 28 km
Ortszeit Niederschlagsmenge Niederschlagsart
Di, 27.09. 8:00 7 l/m2 in 12 Std. Regen
Di, 27.09. 2:00 4 l/m2 in 6 Std. Regen
Mo, 26.09. 20:00 0.6 l/m2 in 12 Std. Regen
Mo, 26.09. 14:00 0.5 l/m2 in 6 Std. Regen
Mo, 26.09. 8:00 0.0 l/m2 in 12 Std. -
Mo, 26.09. 2:00 0.0 l/m2 in 6 Std. -
So, 25.09. 20:00 6 l/m2 in 12 Std. Regen
So, 25.09. 14:00 5 l/m2 in 6 Std. Regen
Ortszeit Niederschlagsmenge Niederschlagsart
Di, 27.09. 12:00 0.1 l/m2 in 1 Std. Regen
Di, 27.09. 11:30 <0.05 l/m2 in 1 Std. -
Di, 27.09. 11:20 keine Meldung -
Di, 27.09. 11:10 keine Meldung -
Di, 27.09. 11:00 <0.05 l/m2 in 1 Std. Regen
Di, 27.09. 10:50 keine Meldung -
Di, 27.09. 10:30 0.0 l/m2 in 1 Std. -
Di, 27.09. 10:00 0.1 l/m2 in 1 Std. Regen
Di, 27.09. 9:30 0.1 l/m2 in 1 Std. Schneeregen
Di, 27.09. 9:00 0.2 l/m2 in 1 Std. Regen
Ortszeit Stärke Spitze Richtung
km/h Bft. km/h Grad Sektor
Di, 27.09. 8:00 26 4 41 270° W
Di, 27.09. 2:00 25 4 40 220° SW
Mo, 26.09. 20:00 18 3 54 200° S
Mo, 26.09. 14:00 24 4 44 230° SW
Mo, 26.09. 8:00 9 2 19 170° S
Mo, 26.09. 2:00 9 2 17 300° NW
So, 25.09. 20:00 9 2 22 340° N
So, 25.09. 14:00 7 2 14 340° N
Ortszeit Stärke Spitze Richtung
km/h Bft. km/h Grad Sektor
Di, 27.09. 12:00 24 4 43 270° W
Di, 27.09. 11:30 20 4 37 270° W
Di, 27.09. 11:20 20 4 - 270° W
Di, 27.09. 11:10 28 4 - 270° W
Di, 27.09. 11:00 22 4 37 270° W
Di, 27.09. 10:50 22 4 - 270° W
Di, 27.09. 10:30 22 4 37 260° W
Di, 27.09. 10:00 18 3 36 270° W
Di, 27.09. 9:30 19 3 37 270° W
Di, 27.09. 9:00 20 4 35 270° W
Ortszeit Untergrenze Bedeckung Gattung
total tief tief mittel hoch
Di, 27.09. 8:00 480 m 8/8 8/8 - - -
Di, 27.09. 2:00 1350 m 8/8 8/8 - - -
Mo, 26.09. 20:00 1500 m 8/8 8/8 - - -
Mo, 26.09. 14:00 870 m 8/8 8/8 - - -
Mo, 26.09. 8:00 120 m 8/8 8/8 - - -
Mo, 26.09. 2:00 1500 m 7/8 7/8 - - -
So, 25.09. 20:00 420 m 8/8 8/8 - - -
So, 25.09. 14:00 480 m 8/8 8/8 - - -
Ortszeit Bedeckungsgrad in Achtel und Wolkenuntergrenze
Di, 27.09. 12:00 4(630m) 7(2400m) 8(3600m)
Di, 27.09. 11:30 2(480m) 8(1290m) 8(1800m)
Di, 27.09. 11:20 2(480m) 8(1290m) 8(1800m)
Di, 27.09. 11:10 8
Di, 27.09. 11:00 5(450m) 8(870m) 8(1320m)
Di, 27.09. 10:50 5(450m) 8(870m) 8(1320m)
Di, 27.09. 10:30 3(480m) 8(1500m) 8(2400m)
Di, 27.09. 10:00 3(510m) 8(990m) 8(1260m)
Di, 27.09. 9:30 7(720m) 8(2700m) 8(3900m)
Di, 27.09. 9:00 5(810m) 7(1500m) 8(5100m)
Ortszeit Luftdruck NN (hPa) Tendenz (hPa in 3 Std.)
Di, 27.09. 8:00 999 + 1,1
Di, 27.09. 2:00 999 - 2,5
Mo, 26.09. 20:00 1003 - 1,4
Mo, 26.09. 14:00 1007 - 1,7
Mo, 26.09. 8:00 1010 - 1,2
Mo, 26.09. 2:00 1012 - 0,8
So, 25.09. 20:00 1012 + 0,3
So, 25.09. 14:00 1012 - 0,4
Ortszeit Luftdruck NN (hPa) Tendenz (hPa in 3 Std.)
Di, 27.09. 12:00 1001 + 2,0
Di, 27.09. 11:30 1001 + 2,2
Di, 27.09. 11:20 1001 keine Meldung
Di, 27.09. 11:10 1001 keine Meldung
Di, 27.09. 11:00 1001 + 2,2
Di, 27.09. 10:50 1001 keine Meldung
Di, 27.09. 10:30 1000 + 2,5
Di, 27.09. 10:00 1000 + 2,5
Di, 27.09. 9:30 1000 + 2,2
Di, 27.09. 9:00 1000 + 1,9
Ortszeit Schneehöhe (cm)
Di, 27.09. 8:00 0
Di, 27.09. 2:00 0
Mo, 26.09. 20:00 0
Mo, 26.09. 14:00 0
Mo, 26.09. 8:00 0
Mo, 26.09. 2:00 0
So, 25.09. 20:00 0
So, 25.09. 14:00 0
Ortszeit Schneehöhe (cm)
Di, 27.09. 12:00 0
Di, 27.09. 11:30 0
Di, 27.09. 11:20 0
Di, 27.09. 11:10 0
Di, 27.09. 11:00 0
Di, 27.09. 10:50 0
Di, 27.09. 10:30 0
Di, 27.09. 10:00 0
Di, 27.09. 9:30 0
Di, 27.09. 9:00 0
Link zu dieser Seite / Seite empfehlen

Das Wetter in ...